sensor_id;sensor_type;location;lat;lon;timestamp;P1;durP1;ratioP1;P2;durP2;ratioP2
7074;SDS011;3578;51.568;6.932;2023-04-25T00:02:14;8.37;;;5.87;;
7074;SDS011;3578;51.568;6.932;2023-04-25T00:04:41;10.43;;;6.13;;
7074;SDS011;3578;51.568;6.932;2023-04-25T00:07:08;9.10;;;6.53;;
7074;SDS011;3578;51.568;6.932;2023-04-25T00:09:35;11.63;;;6.27;;
7074;SDS011;3578;51.568;6.932;2023-04-25T00:12:02;13.00;;;6.37;;
7074;SDS011;3578;51.568;6.932;2023-04-25T00:14:30;13.80;;;6.10;;
7074;SDS011;3578;51.568;6.932;2023-04-25T00:16:59;14.57;;;6.17;;
7074;SDS011;3578;51.568;6.932;2023-04-25T00:19:27;10.00;;;6.57;;
7074;SDS011;3578;51.568;6.932;2023-04-25T00:21:54;13.50;;;6.60;;
7074;SDS011;3578;51.568;6.932;2023-04-25T00:24:21;14.43;;;6.87;;
7074;SDS011;3578;51.568;6.932;2023-04-25T00:26:48;13.23;;;6.80;;
7074;SDS011;3578;51.568;6.932;2023-04-25T00:29:15;9.10;;;6.20;;
7074;SDS011;3578;51.568;6.932;2023-04-25T00:31:42;15.23;;;6.10;;
7074;SDS011;3578;51.568;6.932;2023-04-25T00:34:09;10.60;;;6.87;;
7074;SDS011;3578;51.568;6.932;2023-04-25T00:36:37;10.07;;;6.00;;
7074;SDS011;3578;51.568;6.932;2023-04-25T00:39:04;9.07;;;6.63;;
7074;SDS011;3578;51.568;6.932;2023-04-25T00:41:31;13.77;;;7.00;;
7074;SDS011;3578;51.568;6.932;2023-04-25T00:43:59;8.70;;;6.07;;
7074;SDS011;3578;51.568;6.932;2023-04-25T00:46:28;7.70;;;6.00;;
7074;SDS011;3578;51.568;6.932;2023-04-25T00:48:55;11.20;;;7.07;;
7074;SDS011;3578;51.568;6.932;2023-04-25T00:51:22;10.90;;;5.97;;
7074;SDS011;3578;51.568;6.932;2023-04-25T00:53:53;9.93;;;6.87;;
7074;SDS011;3578;51.568;6.932;2023-04-25T00:56:20;11.87;;;6.73;;
7074;SDS011;3578;51.568;6.932;2023-04-25T00:58:47;10.10;;;7.00;;
7074;SDS011;3578;51.568;6.932;2023-04-25T01:01:15;16.60;;;7.40;;
7074;SDS011;3578;51.568;6.932;2023-04-25T01:03:42;10.23;;;6.73;;
7074;SDS011;3578;51.568;6.932;2023-04-25T01:06:12;11.30;;;7.27;;
7074;SDS011;3578;51.568;6.932;2023-04-25T01:08:39;14.00;;;6.90;;
7074;SDS011;3578;51.568;6.932;2023-04-25T01:11:08;13.00;;;6.90;;
7074;SDS011;3578;51.568;6.932;2023-04-25T01:13:35;11.77;;;6.93;;
7074;SDS011;3578;51.568;6.932;2023-04-25T01:16:02;9.97;;;7.20;;
7074;SDS011;3578;51.568;6.932;2023-04-25T01:18:30;14.30;;;6.90;;
7074;SDS011;3578;51.568;6.932;2023-04-25T01:23:32;12.50;;;7.63;;
7074;SDS011;3578;51.568;6.932;2023-04-25T01:26:00;13.67;;;8.23;;
7074;SDS011;3578;51.568;6.932;2023-04-25T01:28:27;11.43;;;7.70;;
7074;SDS011;3578;51.568;6.932;2023-04-25T01:30:54;10.57;;;7.40;;
7074;SDS011;3578;51.568;6.932;2023-04-25T01:33:22;11.90;;;7.70;;
7074;SDS011;3578;51.568;6.932;2023-04-25T01:35:50;12.63;;;7.60;;
7074;SDS011;3578;51.568;6.932;2023-04-25T01:38:18;14.77;;;9.30;;
7074;SDS011;3578;51.568;6.932;2023-04-25T01:40:46;11.33;;;7.60;;
7074;SDS011;3578;51.568;6.932;2023-04-25T01:43:15;17.93;;;7.77;;
7074;SDS011;3578;51.568;6.932;2023-04-25T01:45:42;14.23;;;8.03;;
7074;SDS011;3578;51.568;6.932;2023-04-25T01:48:09;18.73;;;8.63;;
7074;SDS011;3578;51.568;6.932;2023-04-25T01:50:39;15.57;;;7.57;;
7074;SDS011;3578;51.568;6.932;2023-04-25T01:53:08;13.90;;;8.00;;
7074;SDS011;3578;51.568;6.932;2023-04-25T01:55:38;12.73;;;7.07;;
7074;SDS011;3578;51.568;6.932;2023-04-25T01:58:05;17.97;;;8.07;;
7074;SDS011;3578;51.568;6.932;2023-04-25T02:00:34;11.60;;;8.23;;
7074;SDS011;3578;51.568;6.932;2023-04-25T02:03:03;14.17;;;8.27;;
7074;SDS011;3578;51.568;6.932;2023-04-25T02:05:33;10.30;;;6.87;;
7074;SDS011;3578;51.568;6.932;2023-04-25T02:08:01;10.43;;;6.50;;
7074;SDS011;3578;51.568;6.932;2023-04-25T02:10:29;12.20;;;6.90;;
7074;SDS011;3578;51.568;6.932;2023-04-25T02:12:57;13.43;;;7.53;;
7074;SDS011;3578;51.568;6.932;2023-04-25T02:15:25;14.07;;;7.33;;
7074;SDS011;3578;51.568;6.932;2023-04-25T02:17:52;15.20;;;7.10;;
7074;SDS011;3578;51.568;6.932;2023-04-25T02:20:19;16.23;;;8.50;;
7074;SDS011;3578;51.568;6.932;2023-04-25T02:22:47;14.20;;;7.53;;
7074;SDS011;3578;51.568;6.932;2023-04-25T02:25:14;11.10;;;7.50;;
7074;SDS011;3578;51.568;6.932;2023-04-25T02:27:41;12.33;;;7.00;;
7074;SDS011;3578;51.568;6.932;2023-04-25T02:30:10;16.87;;;7.97;;
7074;SDS011;3578;51.568;6.932;2023-04-25T02:32:38;12.87;;;7.33;;
7074;SDS011;3578;51.568;6.932;2023-04-25T02:35:06;14.00;;;7.50;;
7074;SDS011;3578;51.568;6.932;2023-04-25T02:37:34;12.97;;;7.50;;
7074;SDS011;3578;51.568;6.932;2023-04-25T02:40:02;13.70;;;7.10;;
7074;SDS011;3578;51.568;6.932;2023-04-25T02:42:31;12.13;;;8.13;;
7074;SDS011;3578;51.568;6.932;2023-04-25T02:44:59;11.40;;;8.10;;
7074;SDS011;3578;51.568;6.932;2023-04-25T02:47:27;14.07;;;7.90;;
7074;SDS011;3578;51.568;6.932;2023-04-25T02:49:54;16.43;;;7.40;;
7074;SDS011;3578;51.568;6.932;2023-04-25T02:52:21;14.10;;;8.57;;
7074;SDS011;3578;51.568;6.932;2023-04-25T02:54:48;14.20;;;8.87;;
7074;SDS011;3578;51.568;6.932;2023-04-25T02:57:15;14.43;;;8.47;;
7074;SDS011;3578;51.568;6.932;2023-04-25T02:59:42;10.93;;;7.70;;
7074;SDS011;3578;51.568;6.932;2023-04-25T03:02:09;13.07;;;8.67;;
7074;SDS011;3578;51.568;6.932;2023-04-25T03:04:38;14.30;;;9.00;;
7074;SDS011;3578;51.568;6.932;2023-04-25T03:07:05;12.77;;;7.87;;
7074;SDS011;3578;51.568;6.932;2023-04-25T03:09:31;15.83;;;8.20;;
7074;SDS011;3578;51.568;6.932;2023-04-25T03:11:58;12.93;;;8.30;;
7074;SDS011;3578;51.568;6.932;2023-04-25T03:14:26;13.63;;;8.67;;
7074;SDS011;3578;51.568;6.932;2023-04-25T03:16:53;12.30;;;7.90;;
7074;SDS011;3578;51.568;6.932;2023-04-25T03:19:20;10.17;;;7.73;;
7074;SDS011;3578;51.568;6.932;2023-04-25T03:21:48;13.97;;;8.00;;
7074;SDS011;3578;51.568;6.932;2023-04-25T03:24:15;14.77;;;7.73;;
7074;SDS011;3578;51.568;6.932;2023-04-25T03:26:42;11.47;;;7.30;;
7074;SDS011;3578;51.568;6.932;2023-04-25T03:29:09;22.57;;;7.93;;
7074;SDS011;3578;51.568;6.932;2023-04-25T03:31:36;17.53;;;8.00;;
7074;SDS011;3578;51.568;6.932;2023-04-25T03:34:03;14.67;;;8.50;;
7074;SDS011;3578;51.568;6.932;2023-04-25T03:36:30;13.80;;;7.37;;
7074;SDS011;3578;51.568;6.932;2023-04-25T03:38:59;13.37;;;8.13;;
7074;SDS011;3578;51.568;6.932;2023-04-25T03:41:26;22.20;;;9.20;;
7074;SDS011;3578;51.568;6.932;2023-04-25T03:43:53;14.43;;;7.97;;
7074;SDS011;3578;51.568;6.932;2023-04-25T03:46:20;15.80;;;8.10;;
7074;SDS011;3578;51.568;6.932;2023-04-25T03:48:47;17.10;;;7.67;;
7074;SDS011;3578;51.568;6.932;2023-04-25T03:51:14;17.43;;;8.33;;
7074;SDS011;3578;51.568;6.932;2023-04-25T03:53:42;15.37;;;8.13;;
7074;SDS011;3578;51.568;6.932;2023-04-25T03:56:10;12.20;;;7.07;;
7074;SDS011;3578;51.568;6.932;2023-04-25T03:58:37;15.70;;;8.60;;
7074;SDS011;3578;51.568;6.932;2023-04-25T04:01:04;14.97;;;7.90;;
7074;SDS011;3578;51.568;6.932;2023-04-25T04:03:32;13.13;;;7.87;;
7074;SDS011;3578;51.568;6.932;2023-04-25T04:06:00;12.03;;;6.20;;
7074;SDS011;3578;51.568;6.932;2023-04-25T04:08:28;9.63;;;5.13;;
7074;SDS011;3578;51.568;6.932;2023-04-25T04:10:56;14.20;;;5.90;;
7074;SDS011;3578;51.568;6.932;2023-04-25T04:13:26;11.50;;;5.27;;
7074;SDS011;3578;51.568;6.932;2023-04-25T04:15:54;12.60;;;6.03;;
7074;SDS011;3578;51.568;6.932;2023-04-25T04:18:22;8.13;;;5.20;;
7074;SDS011;3578;51.568;6.932;2023-04-25T04:20:49;9.80;;;5.63;;
7074;SDS011;3578;51.568;6.932;2023-04-25T04:23:16;11.90;;;5.37;;
7074;SDS011;3578;51.568;6.932;2023-04-25T04:25:43;7.23;;;4.77;;
7074;SDS011;3578;51.568;6.932;2023-04-25T04:28:10;17.43;;;5.60;;
7074;SDS011;3578;51.568;6.932;2023-04-25T04:30:39;13.97;;;6.43;;
7074;SDS011;3578;51.568;6.932;2023-04-25T04:33:07;10.77;;;6.10;;
7074;SDS011;3578;51.568;6.932;2023-04-25T04:35:34;13.00;;;6.10;;
7074;SDS011;3578;51.568;6.932;2023-04-25T04:38:01;13.83;;;6.33;;
7074;SDS011;3578;51.568;6.932;2023-04-25T04:40:28;20.63;;;8.83;;
7074;SDS011;3578;51.568;6.932;2023-04-25T04:42:56;13.07;;;8.23;;
7074;SDS011;3578;51.568;6.932;2023-04-25T04:45:23;15.50;;;9.60;;
7074;SDS011;3578;51.568;6.932;2023-04-25T04:47:52;17.73;;;9.60;;
7074;SDS011;3578;51.568;6.932;2023-04-25T04:50:20;18.73;;;9.23;;
7074;SDS011;3578;51.568;6.932;2023-04-25T04:52:47;21.90;;;9.07;;
7074;SDS011;3578;51.568;6.932;2023-04-25T04:55:14;22.37;;;9.60;;
7074;SDS011;3578;51.568;6.932;2023-04-25T04:57:41;20.27;;;9.70;;
7074;SDS011;3578;51.568;6.932;2023-04-25T05:00:09;17.57;;;10.53;;
7074;SDS011;3578;51.568;6.932;2023-04-25T05:02:38;24.20;;;9.77;;
7074;SDS011;3578;51.568;6.932;2023-04-25T05:05:06;17.40;;;8.90;;
7074;SDS011;3578;51.568;6.932;2023-04-25T05:07:34;13.20;;;8.63;;
7074;SDS011;3578;51.568;6.932;2023-04-25T05:10:01;22.20;;;9.77;;
7074;SDS011;3578;51.568;6.932;2023-04-25T05:12:28;18.23;;;8.83;;
7074;SDS011;3578;51.568;6.932;2023-04-25T05:14:55;17.10;;;8.70;;
7074;SDS011;3578;51.568;6.932;2023-04-25T05:17:22;17.70;;;8.57;;
7074;SDS011;3578;51.568;6.932;2023-04-25T05:19:49;17.37;;;8.70;;
7074;SDS011;3578;51.568;6.932;2023-04-25T05:22:17;18.37;;;8.00;;
7074;SDS011;3578;51.568;6.932;2023-04-25T05:24:44;21.80;;;9.00;;
7074;SDS011;3578;51.568;6.932;2023-04-25T05:27:13;15.17;;;8.63;;
7074;SDS011;3578;51.568;6.932;2023-04-25T05:29:42;23.40;;;8.87;;
7074;SDS011;3578;51.568;6.932;2023-04-25T05:32:09;15.33;;;8.20;;
7074;SDS011;3578;51.568;6.932;2023-04-25T05:34:36;18.90;;;8.90;;
7074;SDS011;3578;51.568;6.932;2023-04-25T05:37:03;13.60;;;7.60;;
7074;SDS011;3578;51.568;6.932;2023-04-25T05:39:31;15.37;;;7.90;;
7074;SDS011;3578;51.568;6.932;2023-04-25T05:41:58;20.47;;;8.20;;
7074;SDS011;3578;51.568;6.932;2023-04-25T05:44:26;17.27;;;7.93;;
7074;SDS011;3578;51.568;6.932;2023-04-25T05:46:54;15.67;;;7.40;;
7074;SDS011;3578;51.568;6.932;2023-04-25T05:49:21;21.30;;;8.83;;
7074;SDS011;3578;51.568;6.932;2023-04-25T05:51:48;15.17;;;7.60;;
7074;SDS011;3578;51.568;6.932;2023-04-25T05:54:15;14.97;;;8.20;;
7074;SDS011;3578;51.568;6.932;2023-04-25T05:56:43;10.87;;;7.23;;
7074;SDS011;3578;51.568;6.932;2023-04-25T05:59:10;19.37;;;8.83;;
7074;SDS011;3578;51.568;6.932;2023-04-25T06:01:37;15.70;;;7.23;;
7074;SDS011;3578;51.568;6.932;2023-04-25T06:04:05;13.50;;;7.87;;
7074;SDS011;3578;51.568;6.932;2023-04-25T06:06:32;10.50;;;6.40;;
7074;SDS011;3578;51.568;6.932;2023-04-25T06:08:59;12.40;;;6.20;;
7074;SDS011;3578;51.568;6.932;2023-04-25T06:11:26;15.40;;;6.80;;
7074;SDS011;3578;51.568;6.932;2023-04-25T06:13:54;12.63;;;6.30;;
7074;SDS011;3578;51.568;6.932;2023-04-25T06:16:21;15.30;;;6.57;;
7074;SDS011;3578;51.568;6.932;2023-04-25T06:18:50;14.50;;;5.90;;
7074;SDS011;3578;51.568;6.932;2023-04-25T06:21:17;15.33;;;6.10;;
7074;SDS011;3578;51.568;6.932;2023-04-25T06:23:44;13.90;;;6.07;;
7074;SDS011;3578;51.568;6.932;2023-04-25T06:26:12;11.80;;;6.00;;
7074;SDS011;3578;51.568;6.932;2023-04-25T06:28:39;16.83;;;6.77;;
7074;SDS011;3578;51.568;6.932;2023-04-25T06:31:07;17.47;;;6.43;;
7074;SDS011;3578;51.568;6.932;2023-04-25T06:33:34;12.83;;;6.03;;
7074;SDS011;3578;51.568;6.932;2023-04-25T06:36:01;12.30;;;4.90;;
7074;SDS011;3578;51.568;6.932;2023-04-25T06:38:28;11.00;;;4.10;;
7074;SDS011;3578;51.568;6.932;2023-04-25T06:40:56;9.83;;;4.40;;
7074;SDS011;3578;51.568;6.932;2023-04-25T06:43:22;8.40;;;4.70;;
7074;SDS011;3578;51.568;6.932;2023-04-25T06:45:50;7.80;;;4.80;;
7074;SDS011;3578;51.568;6.932;2023-04-25T06:48:19;13.40;;;4.90;;
7074;SDS011;3578;51.568;6.932;2023-04-25T06:50:45;9.33;;;4.80;;
7074;SDS011;3578;51.568;6.932;2023-04-25T06:53:12;9.70;;;5.83;;
7074;SDS011;3578;51.568;6.932;2023-04-25T06:55:39;15.13;;;5.37;;
7074;SDS011;3578;51.568;6.932;2023-04-25T06:58:06;16.27;;;5.53;;
7074;SDS011;3578;51.568;6.932;2023-04-25T07:00:33;8.73;;;4.47;;
7074;SDS011;3578;51.568;6.932;2023-04-25T07:03:01;10.70;;;4.67;;
7074;SDS011;3578;51.568;6.932;2023-04-25T07:05:29;10.80;;;4.30;;
7074;SDS011;3578;51.568;6.932;2023-04-25T07:07:56;12.03;;;4.87;;
7074;SDS011;3578;51.568;6.932;2023-04-25T07:10:23;12.60;;;5.30;;
7074;SDS011;3578;51.568;6.932;2023-04-25T07:12:50;13.33;;;4.80;;
7074;SDS011;3578;51.568;6.932;2023-04-25T07:15:17;10.73;;;4.27;;
7074;SDS011;3578;51.568;6.932;2023-04-25T07:17:44;10.17;;;4.33;;
7074;SDS011;3578;51.568;6.932;2023-04-25T07:20:11;11.60;;;5.03;;
7074;SDS011;3578;51.568;6.932;2023-04-25T07:22:40;10.10;;;3.63;;
7074;SDS011;3578;51.568;6.932;2023-04-25T07:25:08;10.33;;;4.30;;
7074;SDS011;3578;51.568;6.932;2023-04-25T07:27:35;6.23;;;3.00;;
7074;SDS011;3578;51.568;6.932;2023-04-25T07:30:02;7.57;;;3.07;;
7074;SDS011;3578;51.568;6.932;2023-04-25T07:32:31;10.30;;;3.40;;
7074;SDS011;3578;51.568;6.932;2023-04-25T07:34:57;8.50;;;3.00;;
7074;SDS011;3578;51.568;6.932;2023-04-25T07:37:24;8.93;;;4.00;;
7074;SDS011;3578;51.568;6.932;2023-04-25T07:39:53;8.30;;;3.53;;
7074;SDS011;3578;51.568;6.932;2023-04-25T07:42:20;5.60;;;2.80;;
7074;SDS011;3578;51.568;6.932;2023-04-25T07:44:47;5.13;;;3.20;;
7074;SDS011;3578;51.568;6.932;2023-04-25T07:47:14;8.57;;;2.97;;
7074;SDS011;3578;51.568;6.932;2023-04-25T07:49:41;8.83;;;3.23;;
7074;SDS011;3578;51.568;6.932;2023-04-25T07:52:08;11.50;;;2.90;;
7074;SDS011;3578;51.568;6.932;2023-04-25T07:54:35;7.80;;;2.80;;
7074;SDS011;3578;51.568;6.932;2023-04-25T07:57:03;9.13;;;3.53;;
7074;SDS011;3578;51.568;6.932;2023-04-25T07:59:31;5.10;;;2.73;;
7074;SDS011;3578;51.568;6.932;2023-04-25T08:01:58;11.70;;;3.27;;
7074;SDS011;3578;51.568;6.932;2023-04-25T08:04:27;7.27;;;2.93;;
7074;SDS011;3578;51.568;6.932;2023-04-25T08:06:54;13.97;;;4.00;;
7074;SDS011;3578;51.568;6.932;2023-04-25T08:09:21;9.50;;;3.43;;
7074;SDS011;3578;51.568;6.932;2023-04-25T08:11:49;10.30;;;3.33;;
7074;SDS011;3578;51.568;6.932;2023-04-25T08:14:17;14.80;;;3.27;;
7074;SDS011;3578;51.568;6.932;2023-04-25T08:16:44;11.63;;;3.70;;
7074;SDS011;3578;51.568;6.932;2023-04-25T08:19:11;12.20;;;3.80;;
7074;SDS011;3578;51.568;6.932;2023-04-25T08:21:38;6.63;;;3.33;;
7074;SDS011;3578;51.568;6.932;2023-04-25T08:24:05;10.73;;;3.43;;
7074;SDS011;3578;51.568;6.932;2023-04-25T08:26:32;13.20;;;3.83;;
7074;SDS011;3578;51.568;6.932;2023-04-25T08:28:59;9.67;;;3.17;;
7074;SDS011;3578;51.568;6.932;2023-04-25T08:31:27;15.63;;;3.80;;
7074;SDS011;3578;51.568;6.932;2023-04-25T08:33:54;11.43;;;3.27;;
7074;SDS011;3578;51.568;6.932;2023-04-25T08:36:21;12.60;;;4.13;;
7074;SDS011;3578;51.568;6.932;2023-04-25T08:38:49;5.93;;;2.83;;
7074;SDS011;3578;51.568;6.932;2023-04-25T08:41:16;10.60;;;3.60;;
7074;SDS011;3578;51.568;6.932;2023-04-25T08:43:47;9.20;;;2.83;;
7074;SDS011;3578;51.568;6.932;2023-04-25T08:46:17;7.40;;;3.17;;
7074;SDS011;3578;51.568;6.932;2023-04-25T08:48:46;15.23;;;3.40;;
7074;SDS011;3578;51.568;6.932;2023-04-25T08:51:15;10.27;;;3.50;;
7074;SDS011;3578;51.568;6.932;2023-04-25T08:53:48;10.03;;;2.93;;
7074;SDS011;3578;51.568;6.932;2023-04-25T08:56:17;10.63;;;3.13;;
7074;SDS011;3578;51.568;6.932;2023-04-25T08:58:47;7.97;;;2.93;;
7074;SDS011;3578;51.568;6.932;2023-04-25T09:01:15;6.47;;;2.80;;
7074;SDS011;3578;51.568;6.932;2023-04-25T09:03:43;11.63;;;3.17;;
7074;SDS011;3578;51.568;6.932;2023-04-25T09:06:13;8.93;;;2.57;;
7074;SDS011;3578;51.568;6.932;2023-04-25T09:08:41;8.77;;;2.73;;
7074;SDS011;3578;51.568;6.932;2023-04-25T09:11:08;7.63;;;2.90;;
7074;SDS011;3578;51.568;6.932;2023-04-25T09:13:35;4.23;;;2.50;;
7074;SDS011;3578;51.568;6.932;2023-04-25T09:16:02;5.57;;;2.23;;
7074;SDS011;3578;51.568;6.932;2023-04-25T09:18:29;7.50;;;2.30;;
7074;SDS011;3578;51.568;6.932;2023-04-25T09:20:58;6.13;;;2.30;;
7074;SDS011;3578;51.568;6.932;2023-04-25T09:23:39;7.60;;;2.10;;
7074;SDS011;3578;51.568;6.932;2023-04-25T09:26:08;6.37;;;2.20;;
7074;SDS011;3578;51.568;6.932;2023-04-25T09:28:35;5.40;;;2.57;;
7074;SDS011;3578;51.568;6.932;2023-04-25T09:31:03;3.50;;;1.80;;
7074;SDS011;3578;51.568;6.932;2023-04-25T09:33:31;7.97;;;2.20;;
7074;SDS011;3578;51.568;6.932;2023-04-25T09:36:04;9.00;;;2.80;;
7074;SDS011;3578;51.568;6.932;2023-04-25T09:38:39;4.90;;;1.83;;
7074;SDS011;3578;51.568;6.932;2023-04-25T09:41:10;3.73;;;2.00;;
7074;SDS011;3578;51.568;6.932;2023-04-25T09:43:38;12.17;;;2.87;;
7074;SDS011;3578;51.568;6.932;2023-04-25T09:46:07;6.37;;;2.30;;
7074;SDS011;3578;51.568;6.932;2023-04-25T09:48:36;5.60;;;2.00;;
7074;SDS011;3578;51.568;6.932;2023-04-25T09:51:04;6.87;;;2.70;;
7074;SDS011;3578;51.568;6.932;2023-04-25T09:53:33;5.57;;;2.10;;
7074;SDS011;3578;51.568;6.932;2023-04-25T09:56:04;5.20;;;1.93;;
7074;SDS011;3578;51.568;6.932;2023-04-25T09:58:33;6.03;;;1.97;;
7074;SDS011;3578;51.568;6.932;2023-04-25T10:01:03;3.47;;;1.83;;
7074;SDS011;3578;51.568;6.932;2023-04-25T10:03:33;10.50;;;2.63;;
7074;SDS011;3578;51.568;6.932;2023-04-25T10:06:02;6.93;;;2.37;;
7074;SDS011;3578;51.568;6.932;2023-04-25T10:08:34;6.13;;;2.37;;
7074;SDS011;3578;51.568;6.932;2023-04-25T10:11:06;5.33;;;2.30;;
7074;SDS011;3578;51.568;6.932;2023-04-25T10:13:34;8.30;;;2.27;;
7074;SDS011;3578;51.568;6.932;2023-04-25T10:16:02;6.33;;;2.30;;
7074;SDS011;3578;51.568;6.932;2023-04-25T10:18:31;6.40;;;2.40;;
7074;SDS011;3578;51.568;6.932;2023-04-25T10:21:00;3.70;;;2.13;;
7074;SDS011;3578;51.568;6.932;2023-04-25T10:23:29;6.10;;;2.40;;
7074;SDS011;3578;51.568;6.932;2023-04-25T10:25:59;5.53;;;2.17;;
7074;SDS011;3578;51.568;6.932;2023-04-25T10:28:28;3.60;;;1.90;;
7074;SDS011;3578;51.568;6.932;2023-04-25T10:30:58;7.57;;;3.10;;
7074;SDS011;3578;51.568;6.932;2023-04-25T10:33:29;5.87;;;2.23;;
7074;SDS011;3578;51.568;6.932;2023-04-25T10:36:08;5.67;;;2.63;;
7074;SDS011;3578;51.568;6.932;2023-04-25T10:38:37;7.20;;;3.20;;
7074;SDS011;3578;51.568;6.932;2023-04-25T10:41:04;8.20;;;3.20;;
7074;SDS011;3578;51.568;6.932;2023-04-25T10:43:36;3.77;;;2.00;;
7074;SDS011;3578;51.568;6.932;2023-04-25T10:46:17;9.77;;;2.73;;
7074;SDS011;3578;51.568;6.932;2023-04-25T10:48:48;7.40;;;2.50;;
7074;SDS011;3578;51.568;6.932;2023-04-25T10:51:21;5.50;;;2.20;;
7074;SDS011;3578;51.568;6.932;2023-04-25T10:53:59;7.47;;;2.93;;
7074;SDS011;3578;51.568;6.932;2023-04-25T10:56:28;3.20;;;2.20;;
7074;SDS011;3578;51.568;6.932;2023-04-25T10:59:05;8.63;;;3.00;;
7074;SDS011;3578;51.568;6.932;2023-04-25T11:01:35;4.90;;;2.80;;
7074;SDS011;3578;51.568;6.932;2023-04-25T11:04:18;7.60;;;2.63;;
7074;SDS011;3578;51.568;6.932;2023-04-25T11:06:50;7.87;;;2.23;;
7074;SDS011;3578;51.568;6.932;2023-04-25T11:09:28;4.40;;;1.70;;
7074;SDS011;3578;51.568;6.932;2023-04-25T11:11:56;4.17;;;2.90;;
7074;SDS011;3578;51.568;6.932;2023-04-25T11:14:26;5.97;;;2.10;;
7074;SDS011;3578;51.568;6.932;2023-04-25T11:16:53;3.13;;;1.90;;
7074;SDS011;3578;51.568;6.932;2023-04-25T11:19:21;3.97;;;2.00;;
7074;SDS011;3578;51.568;6.932;2023-04-25T11:21:49;3.53;;;2.27;;
7074;SDS011;3578;51.568;6.932;2023-04-25T11:24:17;2.20;;;1.80;;
7074;SDS011;3578;51.568;6.932;2023-04-25T11:26:46;3.30;;;1.67;;
7074;SDS011;3578;51.568;6.932;2023-04-25T11:29:13;2.80;;;1.90;;
7074;SDS011;3578;51.568;6.932;2023-04-25T11:31:44;4.40;;;1.60;;
7074;SDS011;3578;51.568;6.932;2023-04-25T11:34:11;4.43;;;1.60;;
7074;SDS011;3578;51.568;6.932;2023-04-25T11:36:42;6.23;;;1.73;;
7074;SDS011;3578;51.568;6.932;2023-04-25T11:39:10;3.13;;;1.60;;
7074;SDS011;3578;51.568;6.932;2023-04-25T11:41:38;5.27;;;2.17;;
7074;SDS011;3578;51.568;6.932;2023-04-25T11:44:05;1.70;;;1.47;;
7074;SDS011;3578;51.568;6.932;2023-04-25T11:46:33;4.40;;;1.77;;
7074;SDS011;3578;51.568;6.932;2023-04-25T11:49:02;4.40;;;2.10;;
7074;SDS011;3578;51.568;6.932;2023-04-25T11:51:29;6.50;;;1.80;;
7074;SDS011;3578;51.568;6.932;2023-04-25T11:53:56;3.63;;;1.83;;
7074;SDS011;3578;51.568;6.932;2023-04-25T11:56:23;9.43;;;2.23;;
7074;SDS011;3578;51.568;6.932;2023-04-25T11:58:53;2.60;;;2.03;;
7074;SDS011;3578;51.568;6.932;2023-04-25T12:01:26;5.50;;;2.23;;
7074;SDS011;3578;51.568;6.932;2023-04-25T12:03:54;4.00;;;1.80;;
7074;SDS011;3578;51.568;6.932;2023-04-25T12:06:23;7.70;;;2.40;;
7074;SDS011;3578;51.568;6.932;2023-04-25T12:09:00;3.70;;;1.70;;
7074;SDS011;3578;51.568;6.932;2023-04-25T12:11:29;6.13;;;2.73;;
7074;SDS011;3578;51.568;6.932;2023-04-25T12:14:01;4.00;;;2.70;;
7074;SDS011;3578;51.568;6.932;2023-04-25T12:16:30;3.13;;;2.00;;
7074;SDS011;3578;51.568;6.932;2023-04-25T12:19:06;7.57;;;2.40;;
7074;SDS011;3578;51.568;6.932;2023-04-25T12:21:34;4.70;;;1.70;;
7074;SDS011;3578;51.568;6.932;2023-04-25T12:24:09;4.63;;;1.77;;
7074;SDS011;3578;51.568;6.932;2023-04-25T12:26:47;3.90;;;1.90;;
7074;SDS011;3578;51.568;6.932;2023-04-25T12:29:20;3.40;;;2.10;;
7074;SDS011;3578;51.568;6.932;2023-04-25T12:31:49;5.20;;;2.40;;
7074;SDS011;3578;51.568;6.932;2023-04-25T12:34:18;3.80;;;2.13;;
7074;SDS011;3578;51.568;6.932;2023-04-25T12:36:47;8.83;;;2.20;;
7074;SDS011;3578;51.568;6.932;2023-04-25T12:39:15;6.00;;;2.47;;
7074;SDS011;3578;51.568;6.932;2023-04-25T12:41:43;2.40;;;2.07;;
7074;SDS011;3578;51.568;6.932;2023-04-25T12:44:10;4.27;;;2.30;;
7074;SDS011;3578;51.568;6.932;2023-04-25T12:46:37;2.50;;;1.63;;
7074;SDS011;3578;51.568;6.932;2023-04-25T12:49:05;3.60;;;2.20;;
7074;SDS011;3578;51.568;6.932;2023-04-25T12:51:33;2.67;;;1.70;;
7074;SDS011;3578;51.568;6.932;2023-04-25T12:54:02;2.37;;;2.07;;
7074;SDS011;3578;51.568;6.932;2023-04-25T12:56:31;4.10;;;2.00;;
7074;SDS011;3578;51.568;6.932;2023-04-25T12:58:58;4.43;;;1.60;;
7074;SDS011;3578;51.568;6.932;2023-04-25T13:01:25;12.40;;;2.47;;
7074;SDS011;3578;51.568;6.932;2023-04-25T13:03:52;2.93;;;2.00;;
7074;SDS011;3578;51.568;6.932;2023-04-25T13:06:19;2.80;;;2.10;;
7074;SDS011;3578;51.568;6.932;2023-04-25T13:08:47;5.53;;;2.13;;
7074;SDS011;3578;51.568;6.932;2023-04-25T13:11:15;5.17;;;2.43;;
7074;SDS011;3578;51.568;6.932;2023-04-25T13:13:42;4.47;;;2.27;;
7074;SDS011;3578;51.568;6.932;2023-04-25T13:16:10;3.07;;;2.07;;
7074;SDS011;3578;51.568;6.932;2023-04-25T13:18:38;5.07;;;2.10;;
7074;SDS011;3578;51.568;6.932;2023-04-25T13:21:06;6.63;;;1.87;;
7074;SDS011;3578;51.568;6.932;2023-04-25T13:23:33;4.97;;;1.80;;
7074;SDS011;3578;51.568;6.932;2023-04-25T13:26:00;2.70;;;1.90;;
7074;SDS011;3578;51.568;6.932;2023-04-25T13:28:28;6.10;;;1.97;;
7074;SDS011;3578;51.568;6.932;2023-04-25T13:30:55;5.17;;;1.80;;
7074;SDS011;3578;51.568;6.932;2023-04-25T13:33:23;1.43;;;1.30;;
7074;SDS011;3578;51.568;6.932;2023-04-25T13:35:51;4.60;;;1.53;;
7074;SDS011;3578;51.568;6.932;2023-04-25T13:38:21;4.73;;;1.80;;
7074;SDS011;3578;51.568;6.932;2023-04-25T13:40:49;3.03;;;1.47;;
7074;SDS011;3578;51.568;6.932;2023-04-25T13:43:18;2.93;;;2.10;;
7074;SDS011;3578;51.568;6.932;2023-04-25T13:45:47;1.47;;;1.37;;
7074;SDS011;3578;51.568;6.932;2023-04-25T13:48:14;4.03;;;1.70;;
7074;SDS011;3578;51.568;6.932;2023-04-25T13:50:41;2.73;;;1.33;;
7074;SDS011;3578;51.568;6.932;2023-04-25T13:53:08;2.77;;;1.67;;
7074;SDS011;3578;51.568;6.932;2023-04-25T13:55:35;5.70;;;1.63;;
7074;SDS011;3578;51.568;6.932;2023-04-25T13:58:03;3.67;;;1.77;;
7074;SDS011;3578;51.568;6.932;2023-04-25T14:00:33;7.20;;;1.77;;
7074;SDS011;3578;51.568;6.932;2023-04-25T14:03:04;1.93;;;1.43;;
7074;SDS011;3578;51.568;6.932;2023-04-25T14:05:33;2.57;;;1.40;;
7074;SDS011;3578;51.568;6.932;2023-04-25T14:08:05;2.20;;;1.40;;
7074;SDS011;3578;51.568;6.932;2023-04-25T14:10:32;2.10;;;1.40;;
7074;SDS011;3578;51.568;6.932;2023-04-25T14:13:00;6.20;;;1.40;;
7074;SDS011;3578;51.568;6.932;2023-04-25T14:15:28;1.17;;;1.07;;
7074;SDS011;3578;51.568;6.932;2023-04-25T14:17:56;2.53;;;1.20;;
7074;SDS011;3578;51.568;6.932;2023-04-25T14:20:25;3.70;;;1.63;;
7074;SDS011;3578;51.568;6.932;2023-04-25T14:22:52;3.00;;;1.20;;
7074;SDS011;3578;51.568;6.932;2023-04-25T14:25:21;3.83;;;1.50;;
7074;SDS011;3578;51.568;6.932;2023-04-25T14:27:48;3.20;;;1.47;;
7074;SDS011;3578;51.568;6.932;2023-04-25T14:30:15;4.87;;;1.47;;
7074;SDS011;3578;51.568;6.932;2023-04-25T14:32:43;3.13;;;1.50;;
7074;SDS011;3578;51.568;6.932;2023-04-25T14:35:11;4.10;;;1.83;;
7074;SDS011;3578;51.568;6.932;2023-04-25T14:37:39;10.50;;;2.00;;
7074;SDS011;3578;51.568;6.932;2023-04-25T14:40:07;3.33;;;1.60;;
7074;SDS011;3578;51.568;6.932;2023-04-25T14:42:37;2.90;;;2.07;;
7074;SDS011;3578;51.568;6.932;2023-04-25T14:45:05;4.70;;;2.00;;
7074;SDS011;3578;51.568;6.932;2023-04-25T14:47:34;5.93;;;1.77;;
7074;SDS011;3578;51.568;6.932;2023-04-25T14:50:02;9.20;;;1.70;;
7074;SDS011;3578;51.568;6.932;2023-04-25T14:52:29;3.87;;;1.60;;
7074;SDS011;3578;51.568;6.932;2023-04-25T14:54:58;2.93;;;1.37;;
7074;SDS011;3578;51.568;6.932;2023-04-25T14:57:29;4.03;;;1.80;;
7074;SDS011;3578;51.568;6.932;2023-04-25T14:59:56;2.20;;;1.57;;
7074;SDS011;3578;51.568;6.932;2023-04-25T15:02:23;1.87;;;1.40;;
7074;SDS011;3578;51.568;6.932;2023-04-25T15:04:51;2.77;;;2.03;;
7074;SDS011;3578;51.568;6.932;2023-04-25T15:07:18;5.93;;;2.10;;
7074;SDS011;3578;51.568;6.932;2023-04-25T15:09:45;6.53;;;1.67;;
7074;SDS011;3578;51.568;6.932;2023-04-25T15:12:14;6.80;;;2.40;;
7074;SDS011;3578;51.568;6.932;2023-04-25T15:14:41;2.93;;;2.00;;
7074;SDS011;3578;51.568;6.932;2023-04-25T15:17:08;3.20;;;2.30;;